createdAt,value
2023-03-25T00:02:52.287Z,70.66
2023-03-25T00:06:17.571Z,70.73
2023-03-25T00:09:42.362Z,70.69
2023-03-25T00:13:08.314Z,70.56
2023-03-25T00:16:32.598Z,70.91
2023-03-25T00:19:56.845Z,70.90
2023-03-25T00:23:22.354Z,71.05
2023-03-25T00:26:49.784Z,70.89
2023-03-25T00:30:14.281Z,71.05
2023-03-25T00:33:38.216Z,70.93
2023-03-25T00:37:03.671Z,71.27
2023-03-25T00:40:29.050Z,71.29
2023-03-25T00:43:59.567Z,71.48
2023-03-25T00:47:24.610Z,71.76
2023-03-25T00:50:48.992Z,71.88
2023-03-25T00:54:13.175Z,72.10
2023-03-25T00:57:38.096Z,72.32
2023-03-25T01:01:03.165Z,72.73
2023-03-25T01:04:27.671Z,72.53
2023-03-25T01:07:52.034Z,72.64
2023-03-25T01:11:22.591Z,72.65
2023-03-25T01:14:47.342Z,73.14
2023-03-25T01:18:11.977Z,73.07
2023-03-25T01:21:36.922Z,73.05
2023-03-25T01:25:00.742Z,72.79
2023-03-25T01:28:29.718Z,72.67
2023-03-25T01:31:54.355Z,72.74
2023-03-25T01:35:18.497Z,72.51
2023-03-25T01:38:43.365Z,72.46
2023-03-25T01:42:07.341Z,72.54
2023-03-25T01:45:33.896Z,72.82
2023-03-25T01:49:00.007Z,73.01
2023-03-25T01:52:29.912Z,73.05
2023-03-25T01:55:55.080Z,73.22
2023-03-25T01:59:25.295Z,73.09
2023-03-25T02:02:51.067Z,73.69
2023-03-25T02:06:45.933Z,73.56
2023-03-25T02:10:11.951Z,73.97
2023-03-25T02:13:39.765Z,73.88
2023-03-25T02:17:14.030Z,74.03
2023-03-25T02:20:47.405Z,74.34
2023-03-25T02:24:46.129Z,74.54
2023-03-25T02:28:26.301Z,74.57
2023-03-25T02:32:20.765Z,74.31
2023-03-25T02:36:12.150Z,74.29
2023-03-25T02:39:47.547Z,74.48
2023-03-25T02:43:25.852Z,74.28
2023-03-25T02:46:57.014Z,74.04
2023-03-25T02:50:28.817Z,74.39
2023-03-25T02:53:55.435Z,74.58
2023-03-25T02:57:24.022Z,74.75
2023-03-25T03:00:52.262Z,74.46
2023-03-25T03:04:16.284Z,74.44
2023-03-25T03:07:48.358Z,74.17
2023-03-25T03:11:21.643Z,74.01
2023-03-25T03:15:29.182Z,73.69
2023-03-25T03:19:21.240Z,73.35
2023-03-25T03:23:11.043Z,73.83
2023-03-25T03:26:45.318Z,73.69
2023-03-25T03:30:39.305Z,73.61
2023-03-25T03:34:23.574Z,74.14
2023-03-25T03:37:58.213Z,73.65
2023-03-25T03:41:27.199Z,73.13
2023-03-25T03:44:57.504Z,73.04
2023-03-25T03:48:32.038Z,73.12
2023-03-25T03:52:09.761Z,73.16
2023-03-25T03:55:49.808Z,73.33
2023-03-25T03:59:22.265Z,73.65
2023-03-25T04:02:51.993Z,73.92
2023-03-25T04:06:30.898Z,74.18
2023-03-25T04:10:02.876Z,74.50
2023-03-25T04:13:33.054Z,74.21
2023-03-25T04:16:56.910Z,74.39
2023-03-25T04:20:26.346Z,74.74
2023-03-25T04:23:51.795Z,74.86
2023-03-25T04:27:16.036Z,75.09
2023-03-25T04:30:39.828Z,75.82
2023-03-25T04:34:04.623Z,76.25
2023-03-25T04:37:29.853Z,76.50
2023-03-25T04:40:53.959Z,75.90
2023-03-25T04:44:18.621Z,76.05
2023-03-25T04:47:45.004Z,76.04
2023-03-25T04:51:12.245Z,77.19
2023-03-25T04:54:38.576Z,77.64
2023-03-25T04:58:02.412Z,77.89
2023-03-25T05:01:30.866Z,77.89
2023-03-25T05:05:02.216Z,77.79
2023-03-25T05:08:26.089Z,77.58
2023-03-25T05:11:51.553Z,77.66
2023-03-25T05:15:17.276Z,77.57
2023-03-25T05:18:41.124Z,77.45
2023-03-25T05:22:05.223Z,77.33
2023-03-25T05:25:29.215Z,77.17
2023-03-25T05:28:56.800Z,76.76
2023-03-25T05:32:21.739Z,76.59
2023-03-25T05:35:46.307Z,76.23
2023-03-25T05:39:11.060Z,75.96
2023-03-25T05:42:37.889Z,75.34
2023-03-25T05:46:01.744Z,74.98
2023-03-25T05:49:25.579Z,74.38
2023-03-25T05:52:51.972Z,74.08
2023-03-25T05:56:18.029Z,73.13
2023-03-25T05:59:41.837Z,73.15
2023-03-25T06:03:08.734Z,73.65
2023-03-25T06:06:34.527Z,74.12
2023-03-25T06:09:58.518Z,74.17
2023-03-25T06:13:22.584Z,74.66
2023-03-25T06:16:46.977Z,74.69
2023-03-25T06:20:12.676Z,75.12
2023-03-25T06:23:36.544Z,74.97
2023-03-25T06:27:01.379Z,74.36
2023-03-25T06:30:25.466Z,74.44
2023-03-25T06:33:51.272Z,75.17
2023-03-25T06:37:15.058Z,75.47
2023-03-25T06:40:39.281Z,75.87
2023-03-25T06:44:05.158Z,75.46
2023-03-25T06:47:49.365Z,75.17
2023-03-25T06:51:13.415Z,75.37
2023-03-25T06:54:37.394Z,74.69
2023-03-25T06:58:01.263Z,74.32
2023-03-25T07:01:25.381Z,74.43
2023-03-25T07:04:49.449Z,75.09
2023-03-25T07:08:13.415Z,75.46
2023-03-25T07:11:37.400Z,75.94
2023-03-25T07:15:01.537Z,76.14
2023-03-25T07:18:27.230Z,76.15
2023-03-25T07:21:51.151Z,76.24
2023-03-25T07:25:15.047Z,75.99
2023-03-25T07:28:39.227Z,75.78
2023-03-25T07:32:03.097Z,75.51
2023-03-25T07:35:27.111Z,75.33
2023-03-25T07:38:50.992Z,75.37
2023-03-25T07:42:14.746Z,74.82
2023-03-25T07:46:00.258Z,73.00
2023-03-25T07:49:26.777Z,73.39
2023-03-25T07:52:50.668Z,73.71
2023-03-25T07:56:16.925Z,73.28
2023-03-25T07:59:40.931Z,72.70
2023-03-25T08:03:05.923Z,71.32
2023-03-25T08:06:29.802Z,70.29
2023-03-25T08:09:53.563Z,71.11
2023-03-25T08:13:17.387Z,71.53
2023-03-25T08:16:41.411Z,71.05
2023-03-25T08:20:06.644Z,70.07
2023-03-25T08:23:30.476Z,69.59
2023-03-25T08:26:55.106Z,69.24
2023-03-25T08:30:18.922Z,68.75
2023-03-25T08:33:43.124Z,68.29
2023-03-25T08:37:08.483Z,67.55
2023-03-25T08:40:32.682Z,67.12
2023-03-25T08:43:56.906Z,66.75
2023-03-25T08:47:20.930Z,66.40
2023-03-25T08:50:45.131Z,66.22
2023-03-25T08:54:09.211Z,65.85
2023-03-25T08:57:33.054Z,65.23
2023-03-25T09:00:58.418Z,64.70
2023-03-25T09:04:22.499Z,64.86
2023-03-25T09:07:46.852Z,64.32
2023-03-25T09:11:12.128Z,63.71
2023-03-25T09:14:36.083Z,63.13
2023-03-25T09:18:00.028Z,63.59
2023-03-25T09:21:23.970Z,62.74
2023-03-25T09:24:47.756Z,63.01
2023-03-25T09:28:11.679Z,63.35
2023-03-25T09:31:36.169Z,62.91
2023-03-25T09:35:00.138Z,62.79
2023-03-25T09:38:24.040Z,62.81
2023-03-25T09:42:10.729Z,62.82
2023-03-25T09:45:38.957Z,62.85
2023-03-25T09:49:03.954Z,62.84
2023-03-25T09:52:36.185Z,61.79
2023-03-25T09:56:01.588Z,61.73
2023-03-25T09:59:41.212Z,62.00
2023-03-25T10:03:18.507Z,62.47
2023-03-25T10:06:57.929Z,62.91
2023-03-25T10:10:45.613Z,63.14
2023-03-25T10:14:12.515Z,63.06
2023-03-25T10:17:56.921Z,63.63
2023-03-25T10:21:37.139Z,63.67
2023-03-25T10:25:04.674Z,63.59
2023-03-25T10:28:34.853Z,63.72
2023-03-25T10:32:08.835Z,64.07
2023-03-25T10:35:39.772Z,63.97
2023-03-25T10:39:08.016Z,63.43
2023-03-25T10:42:37.113Z,63.03
2023-03-25T10:46:51.780Z,63.46
2023-03-25T10:50:20.386Z,62.87
2023-03-25T10:53:53.200Z,62.05
2023-03-25T10:57:26.092Z,61.97
2023-03-25T11:00:57.606Z,62.06
2023-03-25T11:04:23.262Z,61.07
2023-03-25T11:08:14.950Z,60.49
2023-03-25T11:11:49.158Z,60.12
2023-03-25T11:15:21.939Z,60.23
2023-03-25T11:18:48.364Z,58.79
2023-03-25T11:22:18.293Z,58.64
2023-03-25T11:25:43.713Z,58.82
2023-03-25T11:29:13.836Z,58.48
2023-03-25T11:32:40.497Z,58.74
2023-03-25T11:36:28.958Z,58.35
2023-03-25T11:39:55.923Z,57.40
2023-03-25T11:43:26.381Z,56.73
2023-03-25T11:46:55.634Z,56.01
2023-03-25T11:50:26.797Z,55.97
2023-03-25T11:53:59.285Z,55.07
2023-03-25T11:57:37.378Z,55.23
2023-03-25T12:01:04.048Z,54.82
2023-03-25T12:04:28.001Z,54.95
2023-03-25T12:08:01.461Z,54.46
2023-03-25T12:11:30.822Z,53.62
2023-03-25T12:15:19.935Z,53.72
2023-03-25T12:19:26.012Z,54.07
2023-03-25T12:23:05.521Z,53.75
2023-03-25T12:27:08.742Z,48.34
2023-03-25T12:30:43.625Z,51.02
2023-03-25T12:34:34.793Z,51.29
2023-03-25T12:38:17.417Z,50.46
2023-03-25T12:41:50.609Z,49.96
2023-03-25T12:45:39.883Z,50.83
2023-03-25T12:49:43.455Z,51.08
2023-03-25T12:53:26.190Z,51.00
2023-03-25T12:57:19.347Z,50.86
2023-03-25T13:01:02.162Z,49.91
2023-03-25T13:04:56.025Z,49.68
2023-03-25T13:08:23.209Z,49.54
2023-03-25T13:11:50.573Z,49.61
2023-03-25T13:15:27.567Z,49.14
2023-03-25T13:19:15.500Z,49.49
2023-03-25T13:22:45.043Z,50.07
2023-03-25T13:26:15.356Z,50.49
2023-03-25T13:29:45.534Z,50.16
2023-03-25T13:33:15.776Z,49.56
2023-03-25T13:36:44.368Z,49.94
2023-03-25T13:40:11.779Z,48.92
2023-03-25T13:43:43.566Z,48.27
2023-03-25T13:47:13.791Z,48.27
2023-03-25T13:50:38.140Z,47.72
2023-03-25T13:54:08.156Z,47.92
2023-03-25T13:57:59.227Z,45.56
2023-03-25T14:01:54.783Z,44.85
2023-03-25T14:05:53.577Z,44.84
2023-03-25T14:09:37.309Z,45.50
2023-03-25T14:13:06.953Z,45.89
2023-03-25T14:16:36.931Z,45.03
2023-03-25T14:20:01.715Z,45.84
2023-03-25T14:23:29.199Z,46.87
2023-03-25T14:26:58.036Z,47.15
2023-03-25T14:30:28.314Z,47.88
2023-03-25T14:34:02.191Z,48.30
2023-03-25T14:37:29.439Z,48.42
2023-03-25T14:41:03.483Z,48.56
2023-03-25T14:44:33.205Z,48.27
2023-03-25T14:47:57.675Z,48.14
2023-03-25T14:51:27.897Z,48.10
2023-03-25T14:54:54.186Z,48.19
2023-03-25T14:58:30.008Z,48.52
2023-03-25T15:01:54.107Z,48.76
2023-03-25T15:05:30.552Z,49.04
2023-03-25T15:08:59.606Z,49.48
2023-03-25T15:12:26.535Z,49.50
2023-03-25T15:15:52.085Z,50.12
2023-03-25T15:19:18.083Z,50.76
2023-03-25T15:22:41.927Z,51.22
2023-03-25T15:26:11.311Z,51.35
2023-03-25T15:29:53.849Z,51.62
2023-03-25T15:33:53.533Z,51.93
2023-03-25T15:37:56.000Z,52.28
2023-03-25T15:41:46.996Z,52.40
2023-03-25T15:45:20.195Z,52.82
2023-03-25T15:48:56.461Z,53.13
2023-03-25T15:52:54.029Z,54.23
2023-03-25T15:56:22.957Z,55.85
2023-03-25T16:00:13.445Z,57.97
2023-03-25T16:03:39.190Z,63.39
2023-03-25T16:07:06.958Z,67.66
2023-03-25T16:10:36.643Z,70.41
2023-03-25T16:14:12.484Z,72.40
2023-03-25T16:17:37.557Z,73.21
2023-03-25T16:21:03.230Z,72.38
2023-03-25T16:24:29.945Z,73.30
2023-03-25T16:27:57.284Z,73.63
2023-03-25T16:31:35.226Z,73.60
2023-03-25T16:34:59.211Z,73.35
2023-03-25T16:38:25.608Z,73.24
2023-03-25T16:41:51.768Z,72.92
2023-03-25T16:45:17.010Z,75.79
2023-03-25T16:48:43.516Z,73.36
2023-03-25T16:52:19.755Z,76.00
2023-03-25T16:55:48.932Z,79.25
2023-03-25T16:59:26.245Z,78.84
2023-03-25T17:02:50.813Z,78.20
2023-03-25T17:06:28.256Z,77.62
2023-03-25T17:09:55.353Z,78.79
2023-03-25T17:13:42.960Z,77.86
2023-03-25T17:17:28.755Z,77.47
2023-03-25T17:20:58.895Z,77.35
2023-03-25T17:24:25.246Z,77.56
2023-03-25T17:27:49.271Z,77.57
2023-03-25T17:31:29.747Z,78.08
2023-03-25T17:35:07.612Z,78.14
2023-03-25T17:38:37.400Z,78.29
2023-03-25T17:42:07.302Z,78.07
2023-03-25T17:45:31.171Z,78.26
2023-03-25T17:48:57.772Z,78.01
2023-03-25T17:52:21.501Z,78.09
2023-03-25T17:55:46.736Z,78.53
2023-03-25T17:59:25.887Z,79.55
2023-03-25T18:02:49.869Z,79.12
2023-03-25T18:06:13.908Z,78.86
2023-03-25T18:09:39.262Z,78.96
2023-03-25T18:13:03.308Z,78.46
2023-03-25T18:16:27.265Z,78.89
2023-03-25T18:19:51.240Z,79.25
2023-03-25T18:23:16.004Z,78.97
2023-03-25T18:26:40.703Z,78.39
2023-03-25T18:30:24.141Z,79.78
2023-03-25T18:33:50.127Z,79.46
2023-03-25T18:37:13.925Z,82.04
2023-03-25T18:40:38.125Z,82.27
2023-03-25T18:44:01.915Z,82.34
2023-03-25T18:47:25.998Z,81.39
2023-03-25T18:50:55.673Z,81.30
2023-03-25T18:54:19.596Z,80.50
2023-03-25T18:57:44.085Z,80.66
2023-03-25T19:01:08.609Z,80.50
2023-03-25T19:04:50.612Z,81.05
2023-03-25T19:08:26.114Z,81.46
2023-03-25T19:11:50.827Z,81.30
2023-03-25T19:15:16.831Z,81.06
2023-03-25T19:18:40.727Z,80.94
2023-03-25T19:22:05.127Z,80.86
2023-03-25T19:25:30.027Z,80.54
2023-03-25T19:28:53.916Z,80.43
2023-03-25T19:32:17.803Z,80.26
2023-03-25T19:35:44.312Z,80.33
2023-03-25T19:39:10.794Z,80.32
2023-03-25T19:42:34.902Z,80.06
2023-03-25T19:45:59.519Z,79.90
2023-03-25T19:49:36.800Z,80.01
2023-03-25T19:53:06.275Z,80.35
2023-03-25T19:56:30.178Z,80.28
2023-03-25T19:59:54.123Z,80.24
2023-03-25T20:03:22.343Z,80.22
2023-03-25T20:06:46.993Z,80.44
2023-03-25T20:10:19.893Z,80.54
2023-03-25T20:13:44.404Z,80.60
2023-03-25T20:17:08.279Z,80.62
2023-03-25T20:20:32.255Z,80.74
2023-03-25T20:23:56.327Z,81.00
2023-03-25T20:27:20.525Z,81.22
2023-03-25T20:30:44.375Z,81.38
2023-03-25T20:34:09.803Z,81.61
2023-03-25T20:37:33.689Z,81.73
2023-03-25T20:40:57.672Z,81.59
2023-03-25T20:44:21.967Z,81.52
2023-03-25T20:47:46.435Z,81.52
2023-03-25T20:51:11.749Z,81.64
2023-03-25T20:54:35.762Z,81.68
2023-03-25T20:57:59.588Z,81.62
2023-03-25T21:01:23.661Z,81.48
2023-03-25T21:04:47.803Z,81.54
2023-03-25T21:08:13.474Z,81.80
2023-03-25T21:11:37.915Z,81.74
2023-03-25T21:15:02.080Z,81.75
2023-03-25T21:18:26.609Z,81.83
2023-03-25T21:21:50.379Z,81.95
2023-03-25T21:25:16.842Z,81.86
2023-03-25T21:28:41.013Z,81.75
2023-03-25T21:32:08.048Z,81.92
2023-03-25T21:35:35.705Z,81.96
2023-03-25T21:39:00.905Z,81.85
2023-03-25T21:42:24.699Z,81.92
2023-03-25T21:45:50.542Z,82.28
2023-03-25T21:49:15.557Z,82.98
2023-03-25T21:52:43.279Z,83.27
2023-03-25T21:56:10.233Z,83.87
2023-03-25T21:59:34.036Z,84.04
2023-03-25T22:02:58.616Z,84.07
2023-03-25T22:06:24.360Z,84.07
2023-03-25T22:09:48.341Z,84.49
2023-03-25T22:13:12.119Z,84.63
2023-03-25T22:16:36.116Z,84.87
2023-03-25T22:19:59.877Z,85.03
2023-03-25T22:23:24.364Z,84.94
2023-03-25T22:26:48.348Z,84.90
2023-03-25T22:30:12.545Z,84.90
2023-03-25T22:33:36.620Z,84.93
2023-03-25T22:37:01.000Z,84.95
2023-03-25T22:40:25.216Z,84.99
2023-03-25T22:43:49.213Z,85.07
2023-03-25T22:47:13.069Z,85.18
2023-03-25T22:50:37.167Z,85.48
2023-03-25T22:54:00.861Z,85.39
2023-03-25T22:57:24.793Z,85.40
2023-03-25T23:00:49.428Z,85.27
2023-03-25T23:04:15.578Z,85.06
2023-03-25T23:07:39.335Z,84.95
2023-03-25T23:11:07.881Z,84.84
2023-03-25T23:14:31.664Z,84.65
2023-03-25T23:17:55.521Z,84.48
2023-03-25T23:21:22.194Z,84.34
2023-03-25T23:24:45.874Z,84.22
2023-03-25T23:28:12.441Z,84.14
2023-03-25T23:31:36.928Z,84.08
2023-03-25T23:35:03.391Z,84.05
2023-03-25T23:38:27.660Z,84.07
2023-03-25T23:41:52.157Z,84.12
2023-03-25T23:45:15.915Z,84.30
2023-03-25T23:48:41.893Z,84.44
2023-03-25T23:52:10.749Z,84.42
2023-03-25T23:55:35.218Z,84.35
2023-03-25T23:58:59.613Z,84.31
